MAA weather

Chennai International Airport
Chennai, Tamil Nadu, India

Public forecast

Using degrees Celsius for public forecast. Weather courtesy of forecast.io.

Current aviation weather report (METAR) for Chennai International Airport

Retrieved 2019/11/16 22:30 UTC (29 minutes ago):

VOMM 162230Z 00000KT 3500 BR FEW020 26/24 Q1011 NOSIG

Aviation forecast (TAF) for Chennai International Airport

Retrieved 2019/11/16 18:00 UTC (5 hours ago):

TAF VOMM 161700Z 1618/1724 VRB02KT 4000 BR SCT020 SCT100 BECMG 1621/1622 34005KT 3000 -DZ/BR TEMPO 1621/1703 2000 TSRA/RA SCT018 FEW025CB BKN080 BECMG 1704/1705 5000 HZ BECMG 1707/1708 07010KT TEMPO 1709/1712 4000 -TSRA/RA SCT018 FEW025CB BKN080 BECMG 1715/1716 VRB02KT 4000 BR